Airport ICAO


14:34 UTC

12°C

Light rain


An affordable passengers' Moving Map for your aircraft. Made for the iPad and the iPhone
More information here

LFLN


Saint Yan FRANCE   VFR


METAR LFLN 241430Z AUTO 00000KT 8000 -RA SCT032/// OVC040/// ///TCU 12/10 Q1016 TEMPO 3000 -RA BKN022 OVC060 0h04min

TAF LFLN 241400Z 2415/2424 17003KT 9999 BKN032 OVC060 TEMPO 2415/2422 3000 -RA BKN022 OVC060 BECMG 2422/2424 2500 RA OVC018 0h34min





NOTAMS

OPEN